Time;durP1;ratioP1;P1;durP2;ratioP2;P2;SDS_P1;SDS_P2;PMS_P1;PMS_P2;Temp;Humidity;BMP_temperature;BMP_pressure;BME280_temperature;BME280_humidity;BME280_pressure;Samples;Min_cycle;Max_cycle;Signal;HPM_P1;HPM_P2
2022/12/22 03:27:47;;;;;;;1.30;1.10;;;10.80;98.00;;;;;;4993326;28;20511;-78
2022/12/22 03:30:14;;;;;;;1.13;1.00;;;10.80;98.00;;;;;;4993573;28;20936;-78
2022/12/22 03:32:43;;;;;;;3.57;1.30;;;10.80;98.00;;;;;;4993275;28;20463;-78
2022/12/22 03:35:10;;;;;;;2.33;1.20;;;10.90;98.00;;;;;;4959855;28;20456;-78
2022/12/22 03:37:37;;;;;;;1.20;1.10;;;10.90;98.00;;;;;;4993187;28;20803;-78
2022/12/22 03:40:05;;;;;;;1.40;1.17;;;10.90;98.00;;;;;;4993111;28;20484;-78
2022/12/22 03:48:04;;;;;;;1.90;1.20;;;11.00;98.00;;;;;;4992847;28;20480;-78
2022/12/22 03:50:33;;;;;;;1.20;1.07;;;11.00;98.00;;;;;;4993153;28;20460;-78
2022/12/22 03:53:00;;;;;;;1.20;1.10;;;11.10;98.00;;;;;;4992602;28;20465;-78
2022/12/22 03:55:28;;;;;;;1.20;1.00;;;11.10;98.00;;;;;;4993150;28;20465;-78
2022/12/22 03:57:56;;;;;;;1.83;1.00;;;11.10;98.00;;;;;;4992524;28;20465;-78
2022/12/22 04:00:24;;;;;;;1.20;1.10;;;11.10;98.00;;;;;;4992904;28;20483;-78
2022/12/22 04:02:51;;;;;;;1.30;1.20;;;11.10;98.00;;;;;;4975784;28;20461;-78
2022/12/22 04:05:20;;;;;;;1.30;1.10;;;11.10;98.00;;;;;;4992735;28;20470;-78
2022/12/22 04:07:46;;;;;;;1.30;1.10;;;11.10;98.00;;;;;;4992767;28;20459;-78
2022/12/22 04:12:58;;;;;;;1.20;1.00;;;11.10;98.00;;;;;;4992795;28;20441;-78
2022/12/22 04:15:27;;;;;;;1.20;1.00;;;11.10;98.00;;;;;;4975604;28;20520;-78
2022/12/22 04:18:03;;;;;;;1.20;1.00;;;11.10;98.00;;;;;;4992762;28;20599;-78
2022/12/22 04:20:33;;;;;;;1.20;1.00;;;11.10;98.00;;;;;;4993070;28;20544;-79
2022/12/22 04:23:01;;;;;;;1.43;1.10;;;11.10;98.00;;;;;;4992862;28;20466;-78
2022/12/22 04:25:28;;;;;;;1.20;1.10;;;11.10;98.00;;;;;;4992741;28;20979;-78
2022/12/22 04:27:55;;;;;;;1.60;1.10;;;11.10;98.00;;;;;;4992642;28;20493;-78
2022/12/22 04:30:22;;;;;;;4.73;1.20;;;11.20;98.00;;;;;;4992370;28;20453;-77
2022/12/22 04:32:49;;;;;;;1.20;1.00;;;11.30;98.00;;;;;;4992439;28;20493;-78
2022/12/22 04:35:16;;;;;;;1.30;0.97;;;11.30;98.00;;;;;;4992402;28;20972;-78
2022/12/22 04:37:45;;;;;;;1.60;1.20;;;11.30;98.00;;;;;;4992454;28;20515;-78
2022/12/22 04:40:12;;;;;;;2.53;1.10;;;11.30;98.00;;;;;;4992403;28;20486;-78
2022/12/22 04:42:39;;;;;;;1.30;1.10;;;11.40;98.00;;;;;;4992486;28;20546;-78
2022/12/22 04:45:08;;;;;;;1.20;1.10;;;11.40;98.00;;;;;;4992395;28;20954;-78
2022/12/22 04:47:35;;;;;;;1.77;1.33;;;11.40;98.00;;;;;;4992359;28;20461;-78
2022/12/22 04:50:02;;;;;;;1.30;1.13;;;11.40;98.00;;;;;;4992652;28;21014;-78
2022/12/22 04:52:29;;;;;;;1.30;1.03;;;11.40;98.00;;;;;;4992043;28;21164;-78
2022/12/22 04:54:58;;;;;;;1.10;1.00;;;11.40;98.00;;;;;;4977186;28;20464;-78
2022/12/22 04:57:25;;;;;;;1.20;1.10;;;11.40;98.00;;;;;;4996077;28;20458;-78
2022/12/22 04:59:54;;;;;;;1.60;1.20;;;11.40;98.00;;;;;;4996613;28;20473;-79
2022/12/22 05:02:21;;;;;;;1.40;1.10;;;11.50;98.00;;;;;;4996107;28;20468;-78
2022/12/22 05:04:48;;;;;;;1.20;1.00;;;11.50;98.00;;;;;;4996212;28;20827;-78
2022/12/22 05:07:15;;;;;;;1.30;1.13;;;11.50;98.00;;;;;;4996181;28;20460;-78
2022/12/22 05:09:43;;;;;;;1.40;1.00;;;11.40;98.00;;;;;;4996001;28;20458;-78
2022/12/22 05:14:57;;;;;;;1.67;1.13;;;11.40;98.00;;;;;;4996073;28;20444;-78
2022/12/22 05:17:24;;;;;;;1.47;1.20;;;11.50;98.00;;;;;;4995649;28;20456;-78
2022/12/22 05:19:52;;;;;;;1.20;1.00;;;11.40;98.00;;;;;;4995584;28;20494;-78
2022/12/22 05:22:20;;;;;;;1.40;1.10;;;11.40;98.00;;;;;;4995547;28;20453;-78
2022/12/22 05:24:47;;;;;;;1.97;1.20;;;11.50;98.00;;;;;;4995253;28;20483;-78
2022/12/22 05:27:15;;;;;;;1.70;1.03;;;11.50;98.00;;;;;;4995392;28;20468;-78
2022/12/22 05:29:42;;;;;;;1.37;1.10;;;11.50;98.00;;;;;;4995284;28;20458;-78
2022/12/22 05:32:09;;;;;;;3.00;1.30;;;11.50;98.00;;;;;;4995408;28;20464;-78
2022/12/22 05:34:36;;;;;;;1.50;1.13;;;11.50;98.00;;;;;;4995355;28;20451;-77
2022/12/22 05:37:03;;;;;;;1.60;1.27;;;11.50;98.00;;;;;;4995638;28;21151;-78
2022/12/22 05:39:31;;;;;;;1.20;1.10;;;11.60;98.00;;;;;;4977606;28;20827;-78
2022/12/22 05:41:58;;;;;;;1.70;1.10;;;11.60;98.00;;;;;;4995332;28;21113;-78
2022/12/22 05:44:26;;;;;;;5.90;1.40;;;11.60;98.00;;;;;;4995191;28;20458;-78
2022/12/22 05:46:53;;;;;;;1.20;1.10;;;11.50;98.00;;;;;;4977789;28;20512;-78
2022/12/22 05:49:20;;;;;;;2.30;1.40;;;11.50;98.00;;;;;;4994992;28;20520;-78
2022/12/22 05:51:48;;;;;;;1.27;1.17;;;11.50;98.00;;;;;;4994989;28;20482;-78
2022/12/22 05:54:17;;;;;;;1.87;1.20;;;11.50;98.00;;;;;;4995035;28;20461;-78
2022/12/22 05:56:44;;;;;;;2.10;1.57;;;11.50;98.00;;;;;;4995100;28;20463;-78
2022/12/22 05:59:12;;;;;;;1.20;1.10;;;11.50;98.00;;;;;;4994853;28;20484;-78
2022/12/22 06:01:41;;;;;;;2.13;1.70;;;11.50;98.00;;;;;;4994123;28;20465;-78
2022/12/22 06:04:08;;;;;;;1.60;1.57;;;11.50;98.00;;;;;;4994836;28;20809;-78
2022/12/22 06:06:37;;;;;;;6.60;1.27;;;11.50;98.00;;;;;;4994617;28;20473;-77
2022/12/22 06:09:04;;;;;;;1.43;1.10;;;11.50;98.00;;;;;;4994904;28;20459;-78
2022/12/22 06:11:31;;;;;;;1.80;1.10;;;11.50;98.00;;;;;;4994849;28;20459;-78
2022/12/22 06:13:58;;;;;;;1.40;1.13;;;11.50;98.00;;;;;;4994707;28;20860;-78
2022/12/22 06:16:29;;;;;;;1.47;1.10;;;11.50;98.00;;;;;;4994558;28;20939;-78
2022/12/22 06:18:59;;;;;;;3.27;1.20;;;11.50;98.00;;;;;;4977060;28;20573;-77
2022/12/22 06:21:26;;;;;;;1.50;1.00;;;11.40;98.00;;;;;;4994547;28;20500;-78
2022/12/22 06:23:53;;;;;;;1.20;1.10;;;11.50;98.00;;;;;;4994455;28;20456;-78
2022/12/22 06:26:21;;;;;;;4.90;1.20;;;11.50;98.00;;;;;;4994143;28;20471;-77
2022/12/22 06:28:51;;;;;;;1.40;1.20;;;11.50;98.00;;;;;;4994481;28;20472;-78
2022/12/22 06:31:18;;;;;;;3.30;1.80;;;11.50;98.00;;;;;;4994303;28;20497;-78
2022/12/22 06:33:48;;;;;;;2.33;1.33;;;11.50;98.00;;;;;;4994224;28;20461;-78
2022/12/22 06:36:17;;;;;;;1.50;1.40;;;11.50;98.00;;;;;;4994537;28;20460;-78
2022/12/22 06:38:44;;;;;;;1.20;1.20;;;11.50;98.00;;;;;;4993995;28;20452;-78
2022/12/22 06:41:11;;;;;;;1.40;1.20;;;11.50;98.00;;;;;;4994216;28;20460;-78
2022/12/22 06:43:37;;;;;;;1.20;1.00;;;11.60;98.00;;;;;;4994218;28;20462;-78
2022/12/22 06:46:05;;;;;;;1.30;1.20;;;11.50;98.00;;;;;;4976877;28;20564;-78
2022/12/22 06:48:32;;;;;;;1.20;1.10;;;11.50;98.00;;;;;;4993911;28;20459;-78
2022/12/22 06:50:59;;;;;;;1.67;1.47;;;11.50;98.00;;;;;;4994036;28;20488;-78
2022/12/22 06:53:28;;;;;;;1.10;1.00;;;11.50;98.00;;;;;;4993897;28;20465;-78
2022/12/22 06:55:56;;;;;;;1.70;1.20;;;11.60;98.00;;;;;;4994079;28;20473;-78
2022/12/22 06:58:23;;;;;;;1.43;1.10;;;11.70;98.00;;;;;;4993894;28;20461;-78
2022/12/22 07:00:50;;;;;;;1.30;1.10;;;11.70;98.00;;;;;;4993986;28;20498;-78
2022/12/22 07:03:17;;;;;;;1.80;1.43;;;11.70;98.00;;;;;;4993731;28;20466;-78
2022/12/22 07:05:44;;;;;;;1.20;1.00;;;11.70;98.00;;;;;;4993539;28;20971;-78
2022/12/22 07:08:12;;;;;;;2.37;1.30;;;11.60;98.00;;;;;;4993600;28;20869;-78
2022/12/22 07:10:58;;;;;;;2.67;1.20;;;11.60;98.00;;;;;;4976310;28;20461;-78
2022/12/22 07:13:27;;;;;;;2.87;1.10;;;11.70;98.00;;;;;;4993526;28;20501;-78
2022/12/22 07:15:54;;;;;;;1.40;1.10;;;11.60;98.00;;;;;;4993543;28;20459;-77
2022/12/22 07:18:22;;;;;;;5.47;1.50;;;11.60;98.00;;;;;;4992839;28;20450;-77
2022/12/22 07:20:49;;;;;;;1.33;1.10;;;11.70;98.00;;;;;;4993106;28;21030;-74
2022/12/22 07:23:16;;;;;;;2.30;1.50;;;11.70;98.00;;;;;;4993288;28;20472;-75
2022/12/22 07:25:45;;;;;;;1.40;1.40;;;11.70;98.00;;;;;;4993163;28;20817;-74
2022/12/22 07:28:12;;;;;;;2.80;1.23;;;11.70;98.00;;;;;;4992927;28;20457;-74
2022/12/22 07:30:40;;;;;;;1.40;1.30;;;11.60;98.00;;;;;;4993082;28;20459;-74
2022/12/22 07:33:07;;;;;;;8.33;1.50;;;11.70;98.00;;;;;;4992982;28;21031;-74
2022/12/22 07:35:35;;;;;;;4.70;1.27;;;11.60;98.00;;;;;;4993021;28;20456;-74
2022/12/22 07:38:02;;;;;;;1.53;1.30;;;11.60;98.00;;;;;;4993021;28;20470;-74
2022/12/22 07:40:29;;;;;;;1.50;1.13;;;11.60;98.00;;;;;;4993018;28;20493;-75
2022/12/22 07:42:57;;;;;;;1.20;1.10;;;11.50;98.00;;;;;;4992948;28;20466;-74
2022/12/22 07:45:25;;;;;;;1.30;1.30;;;11.60;98.00;;;;;;4992887;28;20502;-74
2022/12/22 07:47:58;;;;;;;2.70;1.47;;;11.60;98.00;;;;;;4992128;28;21178;-74
2022/12/22 07:50:26;;;;;;;2.10;1.23;;;11.60;98.00;;;;;;4975005;28;20972;-74
2022/12/22 07:52:54;;;;;;;2.07;1.23;;;11.60;98.00;;;;;;4991690;28;20969;-74
2022/12/22 07:55:22;;;;;;;2.60;1.53;;;11.60;98.00;;;;;;4974632;28;20984;-74
2022/12/22 07:57:50;;;;;;;1.93;1.23;;;11.60;98.00;;;;;;4992472;28;20469;-74
2022/12/22 08:00:20;;;;;;;2.27;1.20;;;11.60;98.00;;;;;;4991831;28;21306;-74
2022/12/22 08:02:50;;;;;;;4.07;1.03;;;11.60;98.00;;;;;;4991741;28;20635;-74
2022/12/22 08:05:17;;;;;;;5.17;1.43;;;11.50;98.00;;;;;;4974234;28;20456;-74
2022/12/22 08:07:44;;;;;;;1.90;1.13;;;11.60;98.00;;;;;;4992250;28;20514;-73
2022/12/22 08:10:12;;;;;;;3.87;1.30;;;11.50;98.00;;;;;;4993035;28;20877;-74
2022/12/22 08:12:39;;;;;;;10.00;1.53;;;11.40;98.00;;;;;;4991854;28;20469;-74
2022/12/22 08:15:09;;;;;;;1.30;1.20;;;11.30;98.00;;;;;;4991609;28;20491;-74
2022/12/22 08:17:38;;;;;;;4.43;1.40;;;11.20;98.00;;;;;;4991271;28;20827;-74
2022/12/22 08:20:07;;;;;;;2.30;1.40;;;11.20;98.00;;;;;;4991759;28;20488;-74
2022/12/22 08:22:34;;;;;;;4.60;1.50;;;11.10;98.00;;;;;;4991610;28;20539;-74
2022/12/22 08:25:02;;;;;;;1.97;1.27;;;11.00;98.00;;;;;;4991357;28;20460;-74
2022/12/22 08:27:38;;;;;;;1.60;1.60;;;11.00;98.00;;;;;;4991704;28;20463;-74
2022/12/22 08:30:08;;;;;;;1.67;1.27;;;11.00;98.00;;;;;;4995744;28;20480;-74
2022/12/22 08:32:37;;;;;;;2.17;1.23;;;11.00;98.00;;;;;;4995490;28;20456;-74
2022/12/22 08:35:07;;;;;;;5.23;1.53;;;11.00;98.00;;;;;;4995432;28;20962;-74
2022/12/22 08:37:39;;;;;;;1.53;1.53;;;11.00;98.00;;;;;;4995246;28;20454;-74
2022/12/22 08:40:12;;;;;;;3.83;1.20;;;11.00;98.00;;;;;;4996302;28;20527;-74
2022/12/22 08:42:39;;;;;;;1.20;1.00;;;11.00;98.00;;;;;;4996180;28;20468;-74
2022/12/22 08:45:08;;;;;;;1.20;1.20;;;10.90;98.00;;;;;;4996284;28;20462;-74
2022/12/22 08:47:35;;;;;;;1.20;1.07;;;11.00;98.00;;;;;;4997368;28;20458;-75
2022/12/22 08:50:02;;;;;;;1.20;1.00;;;11.00;98.00;;;;;;4991022;28;20471;-73
2022/12/22 08:52:31;;;;;;;1.37;1.10;;;11.00;98.00;;;;;;4994015;28;20851;-74
2022/12/22 08:54:58;;;;;;;1.63;1.57;;;11.10;98.00;;;;;;4993899;28;20551;-73
2022/12/22 08:57:25;;;;;;;6.90;1.73;;;11.10;98.00;;;;;;4976341;28;21085;-74
2022/12/22 08:59:52;;;;;;;1.30;1.03;;;11.20;98.00;;;;;;4993638;28;20918;-74
2022/12/22 09:02:21;;;;;;;2.90;1.43;;;11.30;98.00;;;;;;4976188;28;20464;-75
2022/12/22 09:04:48;;;;;;;2.10;1.40;;;11.40;98.00;;;;;;4993436;28;20461;-73
2022/12/22 09:07:15;;;;;;;1.30;1.10;;;11.50;98.00;;;;;;4976094;28;21145;-71
2022/12/22 09:09:45;;;;;;;1.80;1.40;;;11.50;98.00;;;;;;4992941;28;20472;-75
2022/12/22 09:12:12;;;;;;;1.20;1.10;;;11.60;98.00;;;;;;4993478;28;20499;-75
2022/12/22 09:14:39;;;;;;;3.63;1.43;;;11.60;98.00;;;;;;4993134;28;20453;-74
2022/12/22 09:17:07;;;;;;;5.70;1.40;;;11.70;98.00;;;;;;4993273;28;20471;-73
2022/12/22 09:19:34;;;;;;;1.50;1.10;;;11.70;98.00;;;;;;4992721;28;20464;-74
2022/12/22 09:22:01;;;;;;;1.20;1.03;;;11.70;98.00;;;;;;4975524;28;20857;-74
2022/12/22 09:24:28;;;;;;;1.63;1.33;;;11.80;98.00;;;;;;4992282;28;20465;-74
2022/12/22 09:26:57;;;;;;;1.30;1.07;;;11.80;98.00;;;;;;4974939;28;20464;-74
2022/12/22 09:29:24;;;;;;;1.50;1.10;;;11.90;98.00;;;;;;4992007;28;20450;-74
2022/12/22 09:31:51;;;;;;;1.60;1.30;;;12.00;98.00;;;;;;4992065;28;20488;-74
2022/12/22 09:34:18;;;;;;;1.20;1.07;;;12.10;98.00;;;;;;4992003;28;20469;-74
2022/12/22 09:36:45;;;;;;;1.20;1.00;;;12.10;98.00;;;;;;4991920;28;20994;-74
2022/12/22 09:39:13;;;;;;;1.20;1.13;;;12.00;98.00;;;;;;4991315;28;20484;-75
2022/12/22 09:41:44;;;;;;;1.43;1.10;;;11.90;98.00;;;;;;4987684;28;20982;-74
2022/12/22 09:44:21;;;;;;;7.13;2.77;;;11.70;98.00;;;;;;4995225;28;20462;-75
2022/12/22 09:46:48;;;;;;;2.03;1.20;;;11.50;98.00;;;;;;4994932;28;20522;-74
2022/12/22 09:49:21;;;;;;;2.80;1.30;;;11.40;98.00;;;;;;4988932;28;20952;-72
2022/12/22 09:51:53;;;;;;;1.83;1.40;;;11.30;98.00;;;;;;4991624;28;20862;-74
2022/12/22 09:54:21;;;;;;;1.20;1.13;;;11.20;98.00;;;;;;4992805;28;20862;-74
2022/12/22 09:56:48;;;;;;;12.93;1.50;;;11.10;98.00;;;;;;4974295;28;20893;-74
2022/12/22 09:59:19;;;;;;;1.83;1.10;;;11.10;98.00;;;;;;4990838;28;20453;-73
2022/12/22 10:02:05;;;;;;;1.53;1.20;;;11.10;98.00;;;;;;4991146;28;20588;-72
2022/12/22 10:04:49;;;;;;;1.60;1.33;;;11.10;98.00;;;;;;4992365;28;20819;-73
2022/12/22 10:07:25;;;;;;;2.23;1.40;;;11.50;98.00;;;;;;4991893;28;20464;-72
2022/12/22 10:09:52;;;;;;;2.47;1.30;;;11.60;98.00;;;;;;4992095;28;20882;-78
2022/12/22 10:12:21;;;;;;;1.40;1.10;;;11.70;98.00;;;;;;4991752;28;20464;-73
2022/12/22 10:14:52;;;;;;;1.20;1.10;;;11.70;98.00;;;;;;4991539;28;20535;-75
2022/12/22 10:17:21;;;;;;;1.20;1.10;;;11.50;98.00;;;;;;4982945;28;20464;-73
2022/12/22 10:19:50;;;;;;;1.83;1.60;;;11.40;98.00;;;;;;4974045;28;20470;-74
2022/12/22 10:22:26;;;;;;;2.93;1.40;;;11.60;98.00;;;;;;4974926;28;20671;-72
2022/12/22 10:24:53;;;;;;;1.60;1.20;;;11.40;98.00;;;;;;4991445;28;20472;-72
2022/12/22 10:27:29;;;;;;;5.67;1.20;;;11.50;98.00;;;;;;4991493;28;20469;-75
2022/12/22 10:30:17;;;;;;;1.20;1.20;;;11.50;98.00;;;;;;4990659;28;20535;-70
2022/12/22 10:33:00;;;;;;;1.50;1.20;;;11.40;98.00;;;;;;4990531;28;20548;-70
2022/12/22 10:35:35;;;;;;;1.60;1.50;;;11.20;98.00;;;;;;4973092;28;20960;-72
2022/12/22 10:38:14;;;;;;;1.30;1.10;;;11.20;98.00;;;;;;4990951;28;20467;-71
2022/12/22 10:40:43;;;;;;;1.90;1.80;;;11.10;98.00;;;;;;4990595;28;20491;-71
2022/12/22 10:43:18;;;;;;;7.37;1.30;;;11.10;98.00;;;;;;4990987;28;20833;-71
2022/12/22 10:45:49;;;;;;;6.03;1.40;;;11.00;98.00;;;;;;4991309;28;20511;-74
2022/12/22 10:48:17;;;;;;;4.10;1.47;;;11.00;98.00;;;;;;4991063;28;20460;-72
2022/12/22 10:50:57;;;;;;;1.40;1.10;;;11.00;98.00;;;;;;4986223;28;20949;-71
2022/12/22 10:53:43;;;;;;;1.40;1.20;;;10.90;98.00;;;;;;4990133;28;20479;-71
2022/12/22 10:56:23;;;;;;;1.30;1.20;;;10.90;98.00;;;;;;4990681;28;20511;-71
2022/12/22 10:58:52;;;;;;;1.20;1.10;;;10.90;98.00;;;;;;4990547;28;20461;-74
2022/12/22 11:01:31;;;;;;;1.30;1.20;;;10.90;98.00;;;;;;4990421;28;20502;-72
2022/12/22 11:04:14;;;;;;;2.17;1.50;;;10.90;98.00;;;;;;4972083;28;20861;-72
2022/12/22 11:06:42;;;;;;;2.10;1.33;;;11.00;98.00;;;;;;4990101;28;20459;-71
2022/12/22 11:09:10;;;;;;;1.10;1.10;;;10.90;98.00;;;;;;4990465;28;20473;-71
2022/12/22 11:11:44;;;;;;;1.30;1.10;;;10.90;98.00;;;;;;4973087;28;20796;-70
2022/12/22 11:14:34;;;;;;;2.77;1.57;;;10.90;98.00;;;;;;5147821;27;20637;-71
2022/12/22 11:17:07;;;;;;;1.40;1.30;;;10.90;98.00;;;;;;5127022;28;20825;-72
2022/12/22 11:19:51;;;;;;;1.17;1.00;;;10.90;98.00;;;;;;5126920;27;20465;-72
2022/12/22 11:22:34;;;;;;;8.30;1.70;;;10.90;98.00;;;;;;5126997;28;20954;-71
2022/12/22 11:25:21;;;;;;;1.10;0.97;;;10.90;98.00;;;;;;5127004;28;20489;-72
2022/12/22 11:27:59;;;;;;;1.40;1.03;;;10.90;98.00;;;;;;5126742;28;20945;-71
2022/12/22 11:30:37;;;;;;;1.30;1.10;;;10.90;98.00;;;;;;5127064;28;20485;-72
2022/12/22 11:33:27;;;;;;;2.23;1.10;;;11.00;98.00;;;;;;5126688;27;21048;-72
2022/12/22 11:35:59;;;;;;;1.20;1.10;;;11.00;98.00;;;;;;5126981;27;20465;-72
2022/12/22 11:38:38;;;;;;;1.77;1.37;;;11.00;98.00;;;;;;5125562;28;20451;-72
2022/12/22 11:41:17;;;;;;;2.50;1.40;;;11.10;98.00;;;;;;5126649;28;20935;-72
2022/12/22 11:43:59;;;;;;;1.53;1.30;;;11.10;98.00;;;;;;5126690;28;20449;-71
2022/12/22 11:46:33;;;;;;;1.83;1.10;;;11.20;98.00;;;;;;5118242;28;20612;-72
2022/12/22 11:49:17;;;;;;;1.80;1.13;;;11.20;98.00;;;;;;5126246;28;21228;-72
2022/12/22 11:52:00;;;;;;;2.13;1.17;;;11.20;98.00;;;;;;5123979;28;20457;-72
2022/12/22 11:54:42;;;;;;;1.20;1.10;;;11.20;98.00;;;;;;5126191;28;20454;-72
2022/12/22 11:57:32;;;;;;;1.30;1.20;;;11.30;98.00;;;;;;5126631;27;20956;-72
2022/12/22 12:00:07;;;;;;;5.63;1.70;;;11.20;98.00;;;;;;5119123;28;20478;-72
2022/12/22 12:03:06;;;;;;;1.20;1.10;;;11.30;98.00;;;;;;5126155;27;20454;-72
2022/12/22 12:05:43;;;;;;;1.80;1.17;;;11.30;98.00;;;;;;5125962;28;20457;-72
2022/12/22 12:08:21;;;;;;;2.40;1.37;;;11.30;98.00;;;;;;5125894;28;20543;-72
2022/12/22 12:10:53;;;;;;;1.20;1.10;;;11.30;98.00;;;;;;5126018;28;20453;-72
2022/12/22 12:13:33;;;;;;;1.20;1.03;;;11.40;98.00;;;;;;5125724;28;20498;-68
2022/12/22 12:16:08;;;;;;;1.10;1.00;;;11.40;98.00;;;;;;5125832;28;20960;-72
2022/12/22 12:19:00;;;;;;;4.17;1.40;;;11.40;98.00;;;;;;5125712;28;20950;-72
2022/12/22 12:21:28;;;;;;;1.20;1.10;;;11.40;98.00;;;;;;5125821;28;20944;-72
2022/12/22 12:24:23;;;;;;;1.60;1.20;;;11.50;98.00;;;;;;5121991;28;20834;-72
2022/12/22 12:26:58;;;;;;;1.57;1.00;;;11.50;98.00;;;;;;5106469;28;20859;-72
2022/12/22 12:29:27;;;;;;;2.37;1.40;;;11.70;98.00;;;;;;5111959;28;20462;-70
2022/12/22 12:32:00;;;;;;;1.10;1.10;;;11.70;98.00;;;;;;5112273;28;20469;-71
2022/12/22 12:34:32;;;;;;;1.10;1.00;;;11.70;98.00;;;;;;5110632;28;20845;-71
2022/12/22 12:37:03;;;;;;;1.73;1.20;;;11.70;98.00;;;;;;5111917;27;20478;-71
2022/12/22 12:39:36;;;;;;;1.30;1.20;;;11.80;98.00;;;;;;5111597;28;20456;-72
2022/12/22 12:42:17;;;;;;;1.97;1.30;;;11.80;98.00;;;;;;5111781;28;20505;-74
2022/12/22 12:44:46;;;;;;;1.20;1.00;;;11.90;98.00;;;;;;5112554;28;20466;-74
2022/12/22 12:47:27;;;;;;;5.53;1.30;;;11.90;98.00;;;;;;5113091;28;20447;-73
2022/12/22 12:50:15;;;;;;;2.37;1.23;;;12.00;98.00;;;;;;5108804;28;20476;-70
2022/12/22 12:53:12;;;;;;;1.20;1.07;;;12.00;98.00;;;;;;5110921;28;20482;-74
2022/12/22 12:55:54;;;;;;;1.67;1.40;;;12.00;98.00;;;;;;5105475;28;20468;-72
2022/12/22 12:58:50;;;;;;;1.83;1.20;;;12.00;98.00;;;;;;5112095;28;20466;-72
2022/12/22 13:01:54;;;;;;;1.10;1.00;;;12.00;98.00;;;;;;5112304;28;20489;-72
2022/12/22 13:05:13;;;;;;;1.20;1.13;;;12.00;98.00;;;;;;5111485;28;20491;-73
2022/12/22 13:08:08;;;;;;;2.47;1.20;;;11.90;98.00;;;;;;5111824;28;20453;-71
2022/12/22 13:10:39;;;;;;;2.50;1.30;;;12.00;98.00;;;;;;5110602;28;20464;-72
2022/12/22 13:13:06;;;;;;;2.20;1.40;;;12.00;98.00;;;;;;5113359;28;21004;-79
2022/12/22 13:15:38;;;;;;;1.13;1.03;;;12.00;98.00;;;;;;5113194;28;20466;-72
2022/12/22 13:18:31;;;;;;;1.50;1.30;;;12.00;98.00;;;;;;5114295;28;20454;-73
2022/12/22 13:21:02;;;;;;;1.50;1.37;;;12.00;98.00;;;;;;5114082;28;20969;-73
2022/12/22 13:23:35;;;;;;;1.20;1.00;;;12.10;98.00;;;;;;5114395;28;20454;-73
2022/12/22 13:26:07;;;;;;;8.60;1.20;;;12.10;98.00;;;;;;5113953;28;20488;-74
2022/12/22 13:28:37;;;;;;;1.20;1.10;;;12.10;98.00;;;;;;5113854;28;20608;-74
2022/12/22 13:31:13;;;;;;;1.30;1.30;;;12.10;98.00;;;;;;5113444;28;20505;-74
2022/12/22 13:33:43;;;;;;;1.20;1.10;;;12.10;98.00;;;;;;5112964;28;20491;-73
2022/12/22 13:36:21;;;;;;;1.37;1.10;;;12.10;98.00;;;;;;5106321;28;20467;-75
2022/12/22 13:38:59;;;;;;;1.30;1.20;;;12.10;98.00;;;;;;5105986;28;20825;-73
2022/12/22 13:41:27;;;;;;;3.77;1.43;;;12.10;98.00;;;;;;5102949;28;20458;-78
2022/12/22 13:43:58;;;;;;;1.30;1.17;;;12.00;98.00;;;;;;5110927;28;20746;-73
2022/12/22 13:46:26;;;;;;;1.40;1.30;;;12.00;98.00;;;;;;5107560;28;20476;-73
2022/12/22 13:48:59;;;;;;;1.80;1.20;;;12.00;98.00;;;;;;5097686;28;20473;-74
2022/12/22 13:51:31;;;;;;;1.30;1.13;;;12.00;98.00;;;;;;5106004;28;20459;-73
2022/12/22 13:54:03;;;;;;;1.20;1.00;;;11.90;98.00;;;;;;5110348;28;20487;-73
2022/12/22 13:56:39;;;;;;;1.20;1.10;;;11.90;98.00;;;;;;5110630;28;20465;-73
2022/12/22 13:59:18;;;;;;;1.30;1.03;;;11.90;98.00;;;;;;5110217;28;20976;-72
2022/12/22 14:01:49;;;;;;;2.43;1.30;;;11.90;98.00;;;;;;5118426;27;20452;-72
2022/12/22 14:04:16;;;;;;;1.60;1.27;;;11.90;98.00;;;;;;5110041;28;20541;-72
2022/12/22 14:06:44;;;;;;;1.50;1.23;;;11.90;98.00;;;;;;5110070;28;20468;-71
2022/12/22 14:09:17;;;;;;;3.20;1.10;;;11.90;98.00;;;;;;5110010;28;20484;-71
2022/12/22 14:11:47;;;;;;;1.27;1.10;;;11.90;98.00;;;;;;5091191;28;20953;-71
2022/12/22 14:14:19;;;;;;;3.10;1.40;;;11.90;98.00;;;;;;5110228;28;20512;-72
2022/12/22 14:16:48;;;;;;;2.53;1.37;;;11.90;98.00;;;;;;5110665;28;20456;-71
2022/12/22 14:19:17;;;;;;;4.97;1.30;;;11.90;98.00;;;;;;5110457;28;20461;-73
2022/12/22 14:21:50;;;;;;;3.77;1.20;;;11.80;98.00;;;;;;5109011;28;20504;-71
2022/12/22 14:24:22;;;;;;;1.20;1.00;;;11.90;98.00;;;;;;5109935;28;20459;-72
2022/12/22 14:26:50;;;;;;;2.07;1.20;;;11.80;98.00;;;;;;5101689;28;20450;-72
2022/12/22 14:29:21;;;;;;;1.20;1.20;;;11.80;98.00;;;;;;5101632;28;20520;-70
2022/12/22 14:31:53;;;;;;;2.47;1.27;;;11.80;98.00;;;;;;5100383;28;20466;-71
2022/12/22 14:34:27;;;;;;;1.20;1.10;;;11.90;98.00;;;;;;5109537;28;20520;-76
2022/12/22 14:36:54;;;;;;;1.67;1.40;;;11.80;98.00;;;;;;5109550;28;20467;-73
2022/12/22 14:39:26;;;;;;;2.00;1.33;;;11.80;98.00;;;;;;5109580;28;20471;-73
2022/12/22 14:41:55;;;;;;;1.60;1.20;;;11.80;98.00;;;;;;5109729;28;20532;-72
2022/12/22 14:44:25;;;;;;;1.20;1.10;;;11.80;98.00;;;;;;5109230;28;20466;-71
2022/12/22 14:47:17;;;;;;;4.03;1.53;;;11.80;98.00;;;;;;5108111;28;20470;-69
2022/12/22 14:49:48;;;;;;;4.70;1.40;;;11.80;98.00;;;;;;5106945;28;20961;-73
2022/12/22 14:52:21;;;;;;;1.30;1.17;;;11.80;98.00;;;;;;5108153;28;20883;-73
2022/12/22 14:54:53;;;;;;;1.43;1.23;;;11.80;98.00;;;;;;5109290;28;20579;-74
2022/12/22 14:57:28;;;;;;;4.80;1.30;;;11.90;98.00;;;;;;5108978;28;20467;-73
2022/12/22 15:00:03;;;;;;;1.70;1.27;;;11.80;98.00;;;;;;5108623;27;20467;-74
2022/12/22 15:02:33;;;;;;;1.30;1.20;;;11.90;98.00;;;;;;5109448;28;20976;-73
2022/12/22 15:05:24;;;;;;;3.47;1.40;;;12.00;98.00;;;;;;5108748;28;20455;-71
2022/12/22 15:07:55;;;;;;;1.30;1.07;;;12.00;98.00;;;;;;5102928;28;20469;-74
2022/12/22 15:10:29;;;;;;;2.00;1.60;;;11.90;98.00;;;;;;5109775;28;20514;-74
2022/12/22 15:13:03;;;;;;;2.20;1.30;;;11.90;98.00;;;;;;5108981;28;20879;-73
2022/12/22 15:15:30;;;;;;;3.00;1.40;;;11.90;98.00;;;;;;5109474;28;20843;-75
2022/12/22 15:17:58;;;;;;;4.13;1.63;;;11.80;98.00;;;;;;5108643;28;20946;-74
2022/12/22 15:20:28;;;;;;;2.00;1.37;;;11.80;98.00;;;;;;5108621;28;20936;-74
2022/12/22 15:22:55;;;;;;;1.30;1.20;;;11.80;98.00;;;;;;5107617;28;20460;-73
2022/12/22 15:25:29;;;;;;;1.30;1.20;;;11.70;98.00;;;;;;5109296;28;20452;-73
2022/12/22 15:27:57;;;;;;;1.20;1.03;;;11.60;98.00;;;;;;5107921;28;20814;-74
2022/12/22 15:30:25;;;;;;;1.43;1.20;;;11.60;98.00;;;;;;5109512;28;20452;-73
2022/12/22 15:32:52;;;;;;;1.63;1.40;;;11.70;98.00;;;;;;5109051;28;20463;-73
2022/12/22 15:35:23;;;;;;;2.60;1.17;;;11.70;98.00;;;;;;5109476;28;20564;-73
2022/12/22 15:37:51;;;;;;;1.70;1.30;;;11.70;98.00;;;;;;5109357;28;20954;-72
2022/12/22 15:40:21;;;;;;;1.83;1.33;;;11.60;98.00;;;;;;5109507;28;20464;-72
2022/12/22 15:42:50;;;;;;;2.80;1.33;;;11.50;98.00;;;;;;5109599;28;20467;-74
2022/12/22 15:45:21;;;;;;;1.37;1.30;;;11.50;98.00;;;;;;5109569;28;20787;-72
2022/12/22 15:47:51;;;;;;;1.43;1.20;;;11.50;98.00;;;;;;5108272;28;20529;-72
2022/12/22 15:50:21;;;;;;;1.50;1.30;;;11.50;98.00;;;;;;5105630;28;21276;-74
2022/12/22 15:52:52;;;;;;;2.00;1.30;;;11.40;98.00;;;;;;5109261;28;20459;-73
2022/12/22 15:55:20;;;;;;;1.77;1.40;;;11.40;98.00;;;;;;5109003;28;20545;-73
2022/12/22 15:57:50;;;;;;;1.70;1.27;;;11.50;98.00;;;;;;5109440;28;20886;-73
2022/12/22 16:00:19;;;;;;;5.27;1.23;;;11.40;98.00;;;;;;5112215;28;20458;-74
2022/12/22 16:02:46;;;;;;;1.70;1.20;;;11.40;98.00;;;;;;5113084;28;20456;-74
2022/12/22 16:05:14;;;;;;;1.40;1.10;;;11.40;98.00;;;;;;5113320;28;20929;-73
2022/12/22 16:07:42;;;;;;;5.63;1.73;;;11.40;98.00;;;;;;5113468;28;20458;-73
2022/12/22 16:10:22;;;;;;;3.27;1.50;;;11.40;98.00;;;;;;5112835;28;20443;-73
2022/12/22 16:12:58;;;;;;;1.53;1.50;;;11.40;98.00;;;;;;5113058;28;20469;-73
2022/12/22 16:15:27;;;;;;;4.57;1.40;;;11.30;98.00;;;;;;5113098;28;20494;-74
2022/12/22 16:17:55;;;;;;;3.50;1.80;;;11.40;98.00;;;;;;5112770;28;20482;-71
2022/12/22 16:20:22;;;;;;;4.60;1.30;;;11.40;98.00;;;;;;5112827;28;21006;-72
2022/12/22 16:22:51;;;;;;;3.57;1.43;;;11.40;98.00;;;;;;5112841;28;20479;-70
2022/12/22 16:25:22;;;;;;;2.33;1.50;;;11.40;98.00;;;;;;5112570;28;20464;-72
2022/12/22 16:27:51;;;;;;;2.73;1.47;;;11.40;98.00;;;;;;5112763;28;20462;-71
2022/12/22 16:30:21;;;;;;;1.57;1.30;;;11.40;98.00;;;;;;5112941;28;20454;-73
2022/12/22 16:32:52;;;;;;;1.37;1.03;;;11.40;98.00;;;;;;5112083;28;20453;-72
2022/12/22 16:35:21;;;;;;;2.23;1.30;;;11.50;98.00;;;;;;5106245;28;20484;-72
2022/12/22 16:37:48;;;;;;;2.40;1.50;;;11.50;98.00;;;;;;5110254;28;20455;-73
2022/12/22 16:40:16;;;;;;;1.70;1.10;;;11.50;98.00;;;;;;5112609;28;20464;-73
2022/12/22 16:42:50;;;;;;;7.30;1.30;;;11.40;98.00;;;;;;5114127;27;20572;-75
2022/12/22 16:45:22;;;;;;;3.00;1.43;;;11.40;98.00;;;;;;5111690;28;20563;-74
2022/12/22 16:47:52;;;;;;;2.13;1.30;;;11.50;98.00;;;;;;5111455;28;20467;-74